createdAt,value
2024-04-22T00:00:13.779Z,1018.63
2024-04-22T00:01:13.842Z,1018.62
2024-04-22T00:02:13.790Z,1018.58
2024-04-22T00:03:13.779Z,1018.60
2024-04-22T00:04:13.870Z,1018.61
2024-04-22T00:05:13.793Z,1018.60
2024-04-22T00:06:13.733Z,1018.62
2024-04-22T00:07:13.757Z,1018.59
2024-04-22T00:08:13.697Z,1018.59
2024-04-22T00:09:13.694Z,1018.58
2024-04-22T00:10:13.773Z,1018.54
2024-04-22T00:11:13.720Z,1018.56
2024-04-22T00:12:13.842Z,1018.52
2024-04-22T00:13:13.678Z,1018.54
2024-04-22T00:14:13.635Z,1018.55
2024-04-22T00:15:13.629Z,1018.54
2024-04-22T00:16:13.658Z,1018.51
2024-04-22T00:17:13.615Z,1018.48
2024-04-22T00:18:13.661Z,1018.50
2024-04-22T00:19:13.650Z,1018.51
2024-04-22T00:20:13.596Z,1018.51
2024-04-22T00:21:13.589Z,1018.49
2024-04-22T00:22:13.640Z,1018.50
2024-04-22T00:23:13.548Z,1018.52
2024-04-22T00:24:13.526Z,1018.51
2024-04-22T00:25:13.550Z,1018.47
2024-04-22T00:26:13.513Z,1018.45
2024-04-22T00:27:13.498Z,1018.48
2024-04-22T00:28:13.523Z,1018.46
2024-04-22T00:29:13.478Z,1018.48
2024-04-22T00:30:13.480Z,1018.44
2024-04-22T00:31:13.497Z,1018.44
2024-04-22T00:32:13.456Z,1018.40
2024-04-22T00:33:13.537Z,1018.43
2024-04-22T00:34:13.468Z,1018.47
2024-04-22T00:35:13.408Z,1018.39
2024-04-22T00:36:13.402Z,1018.44
2024-04-22T00:37:13.425Z,1018.43
2024-04-22T00:38:13.385Z,1018.38
2024-04-22T00:39:13.427Z,1018.43
2024-04-22T00:40:13.465Z,1018.41
2024-04-22T00:41:13.376Z,1018.43
2024-04-22T00:42:13.353Z,1018.42
2024-04-22T00:43:13.388Z,1018.40
2024-04-22T00:44:13.339Z,1018.37
2024-04-22T00:45:13.304Z,1018.38
2024-04-22T00:46:13.347Z,1018.41
2024-04-22T00:47:13.320Z,1018.38
2024-04-22T00:48:13.281Z,1018.41
2024-04-22T00:49:13.291Z,1018.40
2024-04-22T00:50:13.249Z,1018.41
2024-04-22T00:51:13.280Z,1018.40
2024-04-22T00:52:13.287Z,1018.41
2024-04-22T00:53:13.225Z,1018.41
2024-04-22T00:54:13.208Z,1018.39
2024-04-22T00:55:13.240Z,1018.41
2024-04-22T00:56:13.182Z,1018.36
2024-04-22T00:57:13.189Z,1018.39
2024-04-22T00:58:13.211Z,1018.33
2024-04-22T00:59:13.158Z,1018.35
2024-04-22T01:00:13.148Z,1018.38
2024-04-22T01:01:13.151Z,1018.37
2024-04-22T01:02:13.131Z,1018.37
2024-04-22T01:03:13.154Z,1018.37
2024-04-22T01:04:13.307Z,1018.39
2024-04-22T01:05:13.159Z,1018.39
2024-04-22T01:06:13.085Z,1018.41
2024-04-22T01:07:13.121Z,1018.42
2024-04-22T01:08:13.110Z,1018.43
2024-04-22T01:09:13.058Z,1018.44
2024-04-22T01:10:13.192Z,1018.44
2024-04-22T01:11:13.055Z,1018.41
2024-04-22T01:12:13.029Z,1018.44
2024-04-22T01:13:13.111Z,1018.42
2024-04-22T01:14:12.999Z,1018.46
2024-04-22T01:15:13.003Z,1018.39
2024-04-22T01:16:13.022Z,1018.43
2024-04-22T01:17:12.987Z,1018.41
2024-04-22T01:18:12.964Z,1018.43
2024-04-22T01:19:12.998Z,1018.40
2024-04-22T01:20:12.978Z,1018.44
2024-04-22T01:21:12.949Z,1018.43
2024-04-22T01:22:12.969Z,1018.42
2024-04-22T01:23:12.906Z,1018.41
2024-04-22T01:24:12.888Z,1018.40
2024-04-22T01:25:12.942Z,1018.41
2024-04-22T01:26:12.886Z,1018.40
2024-04-22T01:27:12.863Z,1018.38
2024-04-22T01:28:12.870Z,1018.41
2024-04-22T01:29:12.860Z,1018.38
2024-04-22T01:30:12.832Z,1018.37
2024-04-22T01:31:12.833Z,1018.37
2024-04-22T01:32:12.915Z,1018.35
2024-04-22T01:33:12.894Z,1018.35
2024-04-22T01:34:12.816Z,1018.33
2024-04-22T01:35:12.765Z,1018.35
2024-04-22T01:36:12.762Z,1018.33
2024-04-22T01:37:12.794Z,1018.33
2024-04-22T01:38:12.737Z,1018.36
2024-04-22T01:39:12.724Z,1018.32
2024-04-22T01:40:12.737Z,1018.35
2024-04-22T01:41:12.710Z,1018.33
2024-04-22T01:42:12.713Z,1018.39
2024-04-22T01:43:12.720Z,1018.37
2024-04-22T01:44:12.677Z,1018.34
2024-04-22T01:45:12.664Z,1018.32
2024-04-22T01:46:12.705Z,1018.33
2024-04-22T01:47:12.668Z,1018.35
2024-04-22T01:48:12.636Z,1018.32
2024-04-22T01:49:12.689Z,1018.29
2024-04-22T01:50:12.639Z,1018.32
2024-04-22T01:51:12.621Z,1018.31
2024-04-22T01:52:12.601Z,1018.30
2024-04-22T01:53:12.577Z,1018.28
2024-04-22T01:54:12.603Z,1018.30
2024-04-22T01:55:12.584Z,1018.29
2024-04-22T01:56:12.543Z,1018.27
2024-04-22T01:57:12.524Z,1018.26
2024-04-22T01:58:12.571Z,1018.29
2024-04-22T01:59:12.519Z,1018.29
2024-04-22T02:00:12.510Z,1018.29
2024-04-22T02:01:12.567Z,1018.27
2024-04-22T02:02:12.522Z,1018.29
2024-04-22T02:03:12.483Z,1018.26
2024-04-22T02:04:12.502Z,1018.29
2024-04-22T02:05:12.478Z,1018.27
2024-04-22T02:06:12.438Z,1018.27
2024-04-22T02:07:12.440Z,1018.27
2024-04-22T02:08:12.418Z,1018.29
2024-04-22T02:09:12.403Z,1018.27
2024-04-22T02:10:21.511Z,1018.25
2024-04-22T02:11:12.434Z,1018.30
2024-04-22T02:12:12.377Z,1018.26
2024-04-22T02:13:12.379Z,1018.28
2024-04-22T02:14:12.361Z,1018.33
2024-04-22T02:15:12.340Z,1018.31
2024-04-22T02:16:12.367Z,1018.28
2024-04-22T02:17:12.336Z,1018.29
2024-04-22T02:18:12.359Z,1018.29
2024-04-22T02:19:12.331Z,1018.30
2024-04-22T02:20:12.311Z,1018.33
2024-04-22T02:21:12.297Z,1018.32
2024-04-22T02:22:12.289Z,1018.35
2024-04-22T02:23:12.262Z,1018.33
2024-04-22T02:24:12.244Z,1018.31
2024-04-22T02:25:12.272Z,1018.34
2024-04-22T02:26:12.227Z,1018.31
2024-04-22T02:27:12.241Z,1018.34
2024-04-22T02:28:12.230Z,1018.33
2024-04-22T02:29:12.183Z,1018.30
2024-04-22T02:30:12.182Z,1018.28
2024-04-22T02:31:12.204Z,1018.29
2024-04-22T02:32:12.180Z,1018.29
2024-04-22T02:33:12.306Z,1018.28
2024-04-22T02:34:12.175Z,1018.30
2024-04-22T02:35:12.123Z,1018.29
2024-04-22T02:36:12.128Z,1018.32
2024-04-22T02:37:12.132Z,1018.26
2024-04-22T02:38:12.116Z,1018.28
2024-04-22T02:39:12.082Z,1018.24
2024-04-22T02:40:12.176Z,1018.26
2024-04-22T02:41:12.057Z,1018.23
2024-04-22T02:42:12.045Z,1018.26
2024-04-22T02:43:12.110Z,1018.23
2024-04-22T02:44:12.079Z,1018.20
2024-04-22T02:45:12.038Z,1018.22
2024-04-22T02:46:12.052Z,1018.20
2024-04-22T02:47:12.048Z,1018.23
2024-04-22T02:48:12.032Z,1018.18
2024-04-22T02:49:12.016Z,1018.17
2024-04-22T02:50:11.981Z,1018.12
2024-04-22T02:51:12.071Z,1018.16
2024-04-22T02:52:11.985Z,1018.16
2024-04-22T02:53:11.937Z,1018.09
2024-04-22T02:54:11.926Z,1018.14
2024-04-22T02:55:11.949Z,1018.12
2024-04-22T02:56:11.901Z,1018.12
2024-04-22T02:57:11.993Z,1018.14
2024-04-22T02:58:11.902Z,1018.13
2024-04-22T02:59:11.864Z,1018.13
2024-04-22T03:00:11.872Z,1018.12
2024-04-22T03:01:11.951Z,1018.12
2024-04-22T03:02:11.862Z,1018.10
2024-04-22T03:03:11.821Z,1018.14
2024-04-22T03:04:11.850Z,1018.16
2024-04-22T03:05:11.811Z,1018.13
2024-04-22T03:06:11.792Z,1018.11
2024-04-22T03:07:11.808Z,1018.10
2024-04-22T03:08:11.797Z,1018.06
2024-04-22T03:09:11.795Z,1018.08
2024-04-22T03:10:11.750Z,1018.09
2024-04-22T03:11:11.749Z,1018.06
2024-04-22T03:12:11.772Z,1018.11
2024-04-22T03:13:11.788Z,1018.05
2024-04-22T03:14:11.726Z,1018.08
2024-04-22T03:15:11.698Z,1018.05
2024-04-22T03:16:11.731Z,1018.05
2024-04-22T03:17:11.704Z,1018.04
2024-04-22T03:18:11.760Z,1018.02
2024-04-22T03:19:11.670Z,1018.01
2024-04-22T03:20:11.644Z,1018.02
2024-04-22T03:21:11.652Z,1018.00
2024-04-22T03:22:11.661Z,1018.00
2024-04-22T03:23:11.629Z,1017.98
2024-04-22T03:24:11.617Z,1018.01
2024-04-22T03:25:11.598Z,1017.98
2024-04-22T03:26:11.581Z,1018.01
2024-04-22T03:27:11.569Z,1018.01
2024-04-22T03:28:11.569Z,1018.00
2024-04-22T03:29:11.563Z,1018.03
2024-04-22T03:30:11.542Z,1018.00
2024-04-22T03:31:11.566Z,1018.03
2024-04-22T03:32:11.594Z,1018.00
2024-04-22T03:33:11.577Z,1018.00
2024-04-22T03:34:11.522Z,1017.97
2024-04-22T03:35:11.482Z,1018.01
2024-04-22T03:36:11.466Z,1017.94
2024-04-22T03:37:11.481Z,1017.99
2024-04-22T03:38:11.445Z,1017.93
2024-04-22T03:39:11.445Z,1017.99
2024-04-22T03:40:11.470Z,1018.01
2024-04-22T03:41:11.427Z,1018.01
2024-04-22T03:42:11.417Z,1018.00
2024-04-22T03:43:11.445Z,1018.01
2024-04-22T03:44:11.422Z,1018.02
2024-04-22T03:45:11.374Z,1017.98
2024-04-22T03:46:11.442Z,1017.97
2024-04-22T03:47:11.405Z,1017.98
2024-04-22T03:48:11.440Z,1017.93
2024-04-22T03:49:11.359Z,1017.95
2024-04-22T03:50:11.329Z,1017.96
2024-04-22T03:51:11.316Z,1017.92
2024-04-22T03:52:11.323Z,1017.93
2024-04-22T03:53:11.291Z,1017.98
2024-04-22T03:54:11.281Z,1017.96
2024-04-22T03:55:11.294Z,1017.93
2024-04-22T03:56:11.257Z,1017.91
2024-04-22T03:57:11.254Z,1017.93
2024-04-22T03:58:11.238Z,1017.94
2024-04-22T03:59:11.224Z,1017.93
2024-04-22T04:00:11.214Z,1017.96
2024-04-22T04:01:11.287Z,1017.96
2024-04-22T04:02:11.198Z,1017.95
2024-04-22T04:03:11.180Z,1017.97
2024-04-22T04:04:11.262Z,1017.96
2024-04-22T04:05:11.243Z,1018.02
2024-04-22T04:06:11.156Z,1018.01
2024-04-22T04:07:11.183Z,1018.04
2024-04-22T04:08:11.118Z,1018.06
2024-04-22T04:09:11.119Z,1018.08
2024-04-22T04:10:11.209Z,1018.06
2024-04-22T04:11:11.138Z,1018.11
2024-04-22T04:12:11.075Z,1018.12
2024-04-22T04:13:11.114Z,1018.08
2024-04-22T04:14:11.069Z,1018.10
2024-04-22T04:15:11.050Z,1018.09
2024-04-22T04:16:11.071Z,1018.09
2024-04-22T04:17:11.081Z,1018.16
2024-04-22T04:18:11.038Z,1018.12
2024-04-22T04:19:11.050Z,1018.13
2024-04-22T04:20:10.995Z,1018.13
2024-04-22T04:21:10.982Z,1018.16
2024-04-22T04:22:11.001Z,1018.17
2024-04-22T04:23:10.984Z,1018.18
2024-04-22T04:24:10.943Z,1018.14
2024-04-22T04:25:10.956Z,1018.12
2024-04-22T04:26:10.922Z,1018.18
2024-04-22T04:27:10.923Z,1018.13
2024-04-22T04:28:10.950Z,1018.17
2024-04-22T04:29:10.899Z,1018.14
2024-04-22T04:30:10.926Z,1018.11
2024-04-22T04:31:10.908Z,1018.09
2024-04-22T04:32:10.987Z,1018.13
2024-04-22T04:33:10.979Z,1018.11
2024-04-22T04:34:10.868Z,1018.12
2024-04-22T04:35:10.831Z,1018.16
2024-04-22T04:36:10.816Z,1018.12
2024-04-22T04:37:10.819Z,1018.10
2024-04-22T04:38:10.788Z,1018.12
2024-04-22T04:39:10.792Z,1018.11
2024-04-22T04:40:10.802Z,1018.10
2024-04-22T04:41:10.769Z,1018.06
2024-04-22T04:42:10.756Z,1018.06
2024-04-22T04:43:10.789Z,1018.03
2024-04-22T04:44:10.737Z,1018.05
2024-04-22T04:45:10.737Z,1018.02
2024-04-22T04:46:10.775Z,1018.03
2024-04-22T04:47:10.715Z,1018.06
2024-04-22T04:48:10.712Z,1018.09
2024-04-22T04:49:10.709Z,1018.07
2024-04-22T04:50:10.671Z,1018.08
2024-04-22T04:51:10.683Z,1018.11
2024-04-22T04:52:10.705Z,1018.09
2024-04-22T04:53:10.650Z,1018.13
2024-04-22T04:54:10.621Z,1018.11
2024-04-22T04:55:10.664Z,1018.14
2024-04-22T04:56:10.617Z,1018.13
2024-04-22T04:57:10.601Z,1018.09
2024-04-22T04:58:10.626Z,1018.09
2024-04-22T04:59:10.577Z,1018.10
2024-04-22T05:00:10.569Z,1018.09
2024-04-22T05:01:10.644Z,1018.07
2024-04-22T05:02:10.638Z,1018.10
2024-04-22T05:03:10.602Z,1018.05
2024-04-22T05:04:10.537Z,1018.09
2024-04-22T05:05:10.509Z,1018.11
2024-04-22T05:06:10.596Z,1018.10
2024-04-22T05:07:13.083Z,1018.11
2024-04-22T05:08:10.504Z,1018.14
2024-04-22T05:09:10.475Z,1018.15
2024-04-22T05:10:10.500Z,1018.15
2024-04-22T05:11:10.441Z,1018.16
2024-04-22T05:12:10.443Z,1018.19
2024-04-22T05:13:10.477Z,1018.15
2024-04-22T05:14:10.450Z,1018.20
2024-04-22T05:15:10.415Z,1018.17
2024-04-22T05:16:10.413Z,1018.18
2024-04-22T05:17:10.411Z,1018.20
2024-04-22T05:18:10.406Z,1018.16
2024-04-22T05:19:10.418Z,1018.19
2024-04-22T05:20:10.348Z,1018.22
2024-04-22T05:21:10.944Z,1018.23
2024-04-22T05:22:10.391Z,1018.18
2024-04-22T05:23:10.325Z,1018.19
2024-04-22T05:24:10.328Z,1018.18
2024-04-22T05:25:10.350Z,1018.23
2024-04-22T05:26:10.317Z,1018.17
2024-04-22T05:27:10.284Z,1018.15
2024-04-22T05:28:10.317Z,1018.17
2024-04-22T05:29:10.259Z,1018.16
2024-04-22T05:30:10.245Z,1018.11
2024-04-22T05:31:10.305Z,1018.12
2024-04-22T05:32:10.243Z,1018.12
2024-04-22T05:33:10.253Z,1018.10
2024-04-22T05:34:10.212Z,1018.10
2024-04-22T05:35:10.197Z,1018.10
2024-04-22T05:36:10.179Z,1018.13
2024-04-22T05:37:10.187Z,1018.14
2024-04-22T05:38:10.165Z,1018.17
2024-04-22T05:39:10.166Z,1018.13
2024-04-22T05:40:10.138Z,1018.12
2024-04-22T05:41:10.129Z,1018.09
2024-04-22T05:42:10.153Z,1018.08
2024-04-22T05:43:10.132Z,1018.09
2024-04-22T05:44:10.094Z,1018.11
2024-04-22T05:45:10.088Z,1018.06
2024-04-22T05:46:10.330Z,1018.06
2024-04-22T05:47:10.067Z,1018.10
2024-04-22T05:48:10.188Z,1018.08
2024-04-22T05:49:10.064Z,1018.08
2024-04-22T05:50:10.024Z,1018.12
2024-04-22T05:51:10.027Z,1018.15
2024-04-22T05:52:10.036Z,1018.16
2024-04-22T05:53:10.038Z,1018.16
2024-04-22T05:54:09.978Z,1018.13
2024-04-22T05:55:10.210Z,1018.19
2024-04-22T05:56:09.957Z,1018.14
2024-04-22T05:57:09.958Z,1018.15
2024-04-22T05:58:09.991Z,1018.15
2024-04-22T05:59:09.947Z,1018.16
2024-04-22T06:00:09.938Z,1018.17
2024-04-22T06:01:09.959Z,1018.15
2024-04-22T06:02:10.019Z,1018.10
2024-04-22T06:03:10.014Z,1018.14
2024-04-22T06:04:10.006Z,1018.09
2024-04-22T06:05:09.876Z,1018.10
2024-04-22T06:06:09.848Z,1018.08
2024-04-22T06:07:09.853Z,1018.12
2024-04-22T06:08:09.828Z,1018.10
2024-04-22T06:09:09.888Z,1018.11
2024-04-22T06:10:09.849Z,1018.08
2024-04-22T06:11:09.845Z,1018.10
2024-04-22T06:12:17.499Z,1018.12
2024-04-22T06:13:09.826Z,1018.17
2024-04-22T06:14:09.950Z,1018.17
2024-04-22T06:15:09.776Z,1018.11
2024-04-22T06:16:09.854Z,1018.08
2024-04-22T06:17:09.868Z,1018.07
2024-04-22T06:18:09.752Z,1018.09
2024-04-22T06:19:09.758Z,1018.08
2024-04-22T06:20:09.718Z,1018.09
2024-04-22T06:21:09.690Z,1018.08
2024-04-22T06:22:09.708Z,1018.08
2024-04-22T06:23:09.706Z,1018.09
2024-04-22T06:24:09.682Z,1018.04
2024-04-22T06:25:09.726Z,1018.09
2024-04-22T06:26:09.633Z,1018.11
2024-04-22T06:27:09.648Z,1018.08
2024-04-22T06:28:09.662Z,1018.04
2024-04-22T06:29:09.613Z,1018.08
2024-04-22T06:30:09.594Z,1018.05
2024-04-22T06:31:11.638Z,1018.05
2024-04-22T06:32:09.674Z,1017.99
2024-04-22T06:33:09.582Z,1018.02
2024-04-22T06:34:09.624Z,1018.04
2024-04-22T06:35:09.566Z,1018.06
2024-04-22T06:36:09.541Z,1018.08
2024-04-22T06:37:09.573Z,1018.09
2024-04-22T06:38:09.507Z,1018.07
2024-04-22T06:39:09.512Z,1018.03
2024-04-22T06:40:09.506Z,1018.05
2024-04-22T06:41:09.489Z,1018.04
2024-04-22T06:42:09.474Z,1018.05
2024-04-22T06:43:09.455Z,1018.06
2024-04-22T06:44:09.453Z,1018.04
2024-04-22T06:45:09.426Z,1018.03
2024-04-22T06:46:09.564Z,1018.03
2024-04-22T06:47:09.457Z,1018.00
2024-04-22T06:48:09.460Z,1018.05
2024-04-22T06:49:09.483Z,1018.04
2024-04-22T06:50:09.380Z,1018.08
2024-04-22T06:51:09.381Z,1018.08
2024-04-22T06:52:09.461Z,1018.08
2024-04-22T06:53:09.340Z,1018.08
2024-04-22T06:54:09.326Z,1018.11
2024-04-22T06:55:09.456Z,1018.08
2024-04-22T06:56:09.303Z,1018.11
2024-04-22T06:57:09.328Z,1018.12
2024-04-22T06:58:09.298Z,1018.10
2024-04-22T06:59:09.282Z,1018.11
2024-04-22T07:00:09.259Z,1018.11
2024-04-22T07:01:12.814Z,1018.13
2024-04-22T07:02:11.838Z,1018.08
2024-04-22T07:03:09.883Z,1018.10
2024-04-22T07:04:09.291Z,1018.07
2024-04-22T07:05:09.316Z,1018.03
2024-04-22T07:06:09.200Z,1018.05
2024-04-22T07:07:09.199Z,1018.02
2024-04-22T07:08:09.819Z,1018.02
2024-04-22T07:09:09.202Z,1018.05
2024-04-22T07:10:09.173Z,1018.01
2024-04-22T07:11:09.184Z,1018.06
2024-04-22T07:12:09.153Z,1017.96
2024-04-22T07:13:09.165Z,1018.05
2024-04-22T07:14:09.114Z,1018.06
2024-04-22T07:15:09.134Z,1018.05
2024-04-22T07:16:09.091Z,1018.07
2024-04-22T07:17:09.186Z,1018.10
2024-04-22T07:18:09.139Z,1018.11
2024-04-22T07:19:09.092Z,1018.04
2024-04-22T07:20:09.050Z,1018.04
2024-04-22T07:21:09.040Z,1018.08
2024-04-22T07:22:09.033Z,1018.08
2024-04-22T07:23:09.061Z,1018.08
2024-04-22T07:24:09.048Z,1018.10
2024-04-22T07:25:09.009Z,1018.10
2024-04-22T07:26:09.006Z,1018.14
2024-04-22T07:27:15.937Z,1018.09
2024-04-22T07:28:08.964Z,1018.10
2024-04-22T07:29:08.996Z,1018.09
2024-04-22T07:30:08.942Z,1018.15
2024-04-22T07:31:08.934Z,1018.16
2024-04-22T07:32:08.940Z,1018.14
2024-04-22T07:33:09.036Z,1018.11
2024-04-22T07:34:08.897Z,1018.11
2024-04-22T07:35:08.916Z,1018.11
2024-04-22T07:36:08.878Z,1018.09
2024-04-22T07:37:08.879Z,1018.12
2024-04-22T07:38:08.880Z,1018.10
2024-04-22T07:39:08.856Z,1018.09
2024-04-22T07:40:08.874Z,1018.05
2024-04-22T07:41:08.850Z,1018.12
2024-04-22T07:42:08.828Z,1018.11
2024-04-22T07:43:08.809Z,1018.13
2024-04-22T07:44:08.847Z,1018.14
2024-04-22T07:45:08.783Z,1018.14
2024-04-22T07:46:08.783Z,1018.19
2024-04-22T07:47:08.810Z,1018.17
2024-04-22T07:48:08.806Z,1018.18
2024-04-22T07:49:08.767Z,1018.18
2024-04-22T07:50:08.720Z,1018.16
2024-04-22T07:51:08.718Z,1018.14
2024-04-22T07:52:08.713Z,1018.17
2024-04-22T07:53:08.752Z,1018.21
2024-04-22T07:54:08.692Z,1018.23
2024-04-22T07:55:08.681Z,1018.21
2024-04-22T07:56:08.654Z,1018.22
2024-04-22T07:57:08.662Z,1018.21
2024-04-22T07:58:08.679Z,1018.22
2024-04-22T07:59:08.659Z,1018.19
2024-04-22T08:00:08.646Z,1018.20
2024-04-22T08:01:08.647Z,1018.21
2024-04-22T08:02:08.596Z,1018.24
2024-04-22T08:03:08.651Z,1018.20
2024-04-22T08:04:08.672Z,1018.21
2024-04-22T08:05:08.613Z,1018.18
2024-04-22T08:06:08.570Z,1018.16
2024-04-22T08:07:08.571Z,1018.17
2024-04-22T08:08:08.560Z,1018.17
2024-04-22T08:09:08.534Z,1018.18
2024-04-22T08:10:08.613Z,1018.19
2024-04-22T08:11:08.550Z,1018.12
2024-04-22T08:12:08.488Z,1018.11
2024-04-22T08:13:08.503Z,1018.17
2024-04-22T08:14:08.477Z,1018.16
2024-04-22T08:15:08.471Z,1018.16
2024-04-22T08:16:08.447Z,1018.14
2024-04-22T08:17:08.567Z,1018.12
2024-04-22T08:18:08.470Z,1018.09
2024-04-22T08:19:08.404Z,1018.06
2024-04-22T08:20:08.437Z,1018.13
2024-04-22T08:21:08.395Z,1018.08
2024-04-22T08:22:08.370Z,1018.07
2024-04-22T08:23:08.485Z,1018.14
2024-04-22T08:24:08.359Z,1018.17
2024-04-22T08:25:08.354Z,1018.10
2024-04-22T08:26:08.331Z,1018.09
2024-04-22T08:27:08.320Z,1018.07
2024-04-22T08:28:08.355Z,1018.06
2024-04-22T08:29:08.308Z,1018.12
2024-04-22T08:30:08.291Z,1018.10
2024-04-22T08:31:08.281Z,1018.11
2024-04-22T08:32:08.295Z,1018.07
2024-04-22T08:33:08.485Z,1018.10
2024-04-22T08:34:08.371Z,1018.09
2024-04-22T08:35:08.245Z,1018.09
2024-04-22T08:36:08.234Z,1018.08
2024-04-22T08:37:08.218Z,1018.08
2024-04-22T08:38:08.223Z,1018.11
2024-04-22T08:39:08.219Z,1018.12
2024-04-22T08:40:08.194Z,1018.10
2024-04-22T08:41:08.222Z,1018.14
2024-04-22T08:42:08.154Z,1018.11
2024-04-22T08:43:08.151Z,1018.08
2024-04-22T08:44:08.180Z,1018.05
2024-04-22T08:45:08.169Z,1018.09
2024-04-22T08:46:08.124Z,1018.04
2024-04-22T08:47:08.146Z,1018.05
2024-04-22T08:48:08.202Z,1018.04
2024-04-22T08:49:08.082Z,1018.03
2024-04-22T08:50:08.119Z,1018.04
2024-04-22T08:51:08.067Z,1018.02
2024-04-22T08:52:08.052Z,1018.01
2024-04-22T08:53:08.134Z,1017.95
2024-04-22T08:54:08.030Z,1017.99
2024-04-22T08:55:08.049Z,1017.97
2024-04-22T08:56:08.008Z,1017.95
2024-04-22T08:57:08.015Z,1017.96
2024-04-22T08:58:07.996Z,1017.97
2024-04-22T08:59:11.758Z,1017.97
2024-04-22T09:00:07.987Z,1018.01
2024-04-22T09:01:08.014Z,1017.98
2024-04-22T09:02:07.963Z,1017.97
2024-04-22T09:03:08.954Z,1018.07
2024-04-22T09:04:07.946Z,1018.10
2024-04-22T09:05:09.304Z,1018.10
2024-04-22T09:06:08.137Z,1018.10
2024-04-22T09:07:07.981Z,1018.09
2024-04-22T09:08:07.987Z,1018.15
2024-04-22T09:09:08.887Z,1018.18
2024-04-22T09:10:34.883Z,1018.21
2024-04-22T09:11:39.649Z,1018.23
2024-04-22T09:12:10.299Z,1018.21
2024-04-22T09:13:08.191Z,1018.19
2024-04-22T09:14:08.122Z,1018.20
2024-04-22T09:15:08.055Z,1018.18
2024-04-22T09:16:07.913Z,1018.15
2024-04-22T09:17:07.840Z,1018.15
2024-04-22T09:18:07.988Z,1018.08
2024-04-22T09:19:07.771Z,1018.10
2024-04-22T09:20:08.078Z,1018.08
2024-04-22T09:21:08.474Z,1018.09
2024-04-22T09:22:07.787Z,1018.05
2024-04-22T09:23:07.848Z,1018.03
2024-04-22T09:24:07.781Z,1018.02
2024-04-22T09:25:07.706Z,1018.02
2024-04-22T09:26:07.947Z,1017.95
2024-04-22T09:27:07.698Z,1017.98
2024-04-22T09:28:07.726Z,1018.00
2024-04-22T09:29:07.677Z,1017.97
2024-04-22T09:30:07.980Z,1017.94
2024-04-22T09:31:07.637Z,1017.90
2024-04-22T09:32:07.752Z,1017.93
2024-04-22T09:33:07.724Z,1017.91
2024-04-22T09:34:07.714Z,1017.93
2024-04-22T09:35:12.784Z,1017.89
2024-04-22T09:36:07.710Z,1017.90
2024-04-22T09:37:07.649Z,1017.89
2024-04-22T09:38:07.640Z,1017.86
2024-04-22T09:39:07.744Z,1017.84
2024-04-22T09:40:07.563Z,1017.86
2024-04-22T09:41:07.636Z,1017.86
2024-04-22T09:42:07.571Z,1017.92
2024-04-22T09:43:07.518Z,1017.91
2024-04-22T09:44:11.823Z,1017.91
2024-04-22T09:45:07.475Z,1017.95
2024-04-22T09:46:07.493Z,1017.95
2024-04-22T09:47:07.593Z,1018.02
2024-04-22T09:48:07.726Z,1018.04
2024-04-22T09:49:07.699Z,1018.03
2024-04-22T09:50:07.498Z,1018.03
2024-04-22T09:51:07.537Z,1017.96
2024-04-22T09:52:07.415Z,1017.94
2024-04-22T09:53:07.441Z,1018.00
2024-04-22T09:54:07.521Z,1017.98
2024-04-22T09:55:07.438Z,1017.94
2024-04-22T09:56:07.412Z,1017.91
2024-04-22T09:57:07.409Z,1017.95
2024-04-22T09:58:07.346Z,1017.92
2024-04-22T09:59:07.566Z,1017.97
2024-04-22T10:00:07.314Z,1017.95
2024-04-22T10:01:07.359Z,1017.90
2024-04-22T10:02:07.547Z,1017.88
2024-04-22T10:03:07.384Z,1017.89
2024-04-22T10:04:07.340Z,1017.88
2024-04-22T10:05:07.543Z,1017.88
2024-04-22T10:06:07.514Z,1017.89
2024-04-22T10:07:07.391Z,1017.91
2024-04-22T10:08:07.329Z,1017.94
2024-04-22T10:09:07.223Z,1017.92
2024-04-22T10:10:07.252Z,1017.89
2024-04-22T10:11:07.506Z,1017.89
2024-04-22T10:12:07.342Z,1017.89
2024-04-22T10:13:07.204Z,1017.88
2024-04-22T10:14:07.285Z,1017.86
2024-04-22T10:15:07.162Z,1017.87
2024-04-22T10:16:07.240Z,1017.82
2024-04-22T10:17:07.185Z,1017.82
2024-04-22T10:18:09.327Z,1017.80
2024-04-22T10:19:07.225Z,1017.79
2024-04-22T10:20:07.335Z,1017.80
2024-04-22T10:21:07.080Z,1017.81
2024-04-22T10:22:07.128Z,1017.82
2024-04-22T10:23:07.072Z,1017.77
2024-04-22T10:24:07.063Z,1017.79
2024-04-22T10:25:07.385Z,1017.78
2024-04-22T10:26:07.031Z,1017.75
2024-04-22T10:27:11.558Z,1017.75
2024-04-22T10:28:07.015Z,1017.73
2024-04-22T10:29:07.038Z,1017.73
2024-04-22T10:30:08.993Z,1017.71
2024-04-22T10:31:06.986Z,1017.75
2024-04-22T10:32:07.026Z,1017.80
2024-04-22T10:33:07.113Z,1017.80
2024-04-22T10:34:06.993Z,1017.82
2024-04-22T10:35:06.950Z,1017.80
2024-04-22T10:36:06.922Z,1017.81
2024-04-22T10:37:06.936Z,1017.79
2024-04-22T10:38:06.910Z,1017.83
2024-04-22T10:39:06.893Z,1017.89
2024-04-22T10:40:06.879Z,1017.87
2024-04-22T10:41:06.871Z,1017.86
2024-04-22T10:42:06.855Z,1017.86
2024-04-22T10:43:06.842Z,1017.85
2024-04-22T10:44:06.872Z,1017.83
2024-04-22T10:45:06.823Z,1017.88
2024-04-22T10:46:06.903Z,1017.83
2024-04-22T10:47:06.816Z,1017.81
2024-04-22T10:48:12.498Z,1017.81
2024-04-22T10:49:06.923Z,1017.80
2024-04-22T10:50:07.713Z,1017.82
2024-04-22T10:51:06.920Z,1017.81
2024-04-22T10:52:06.756Z,1017.82
2024-04-22T10:53:07.642Z,1017.80
2024-04-22T10:54:06.755Z,1017.78
2024-04-22T10:55:07.068Z,1017.79
2024-04-22T10:56:07.010Z,1017.77
2024-04-22T10:57:06.702Z,1017.81
2024-04-22T10:58:06.683Z,1017.77
2024-04-22T10:59:06.750Z,1017.77
2024-04-22T11:00:06.700Z,1017.72
2024-04-22T11:01:07.246Z,1017.67
2024-04-22T11:02:06.809Z,1017.70
2024-04-22T11:03:06.974Z,1017.70
2024-04-22T11:04:06.793Z,1017.71
2024-04-22T11:05:06.763Z,1017.71
2024-04-22T11:06:06.683Z,1017.71
2024-04-22T11:07:06.636Z,1017.72
2024-04-22T11:08:06.622Z,1017.72
2024-04-22T11:09:06.632Z,1017.68
2024-04-22T11:10:06.598Z,1017.69
2024-04-22T11:11:06.671Z,1017.71
2024-04-22T11:12:06.614Z,1017.72
2024-04-22T11:13:06.539Z,1017.72
2024-04-22T11:14:06.538Z,1017.71
2024-04-22T11:15:06.558Z,1017.67
2024-04-22T11:16:06.531Z,1017.67
2024-04-22T11:17:06.700Z,1017.66
2024-04-22T11:18:06.481Z,1017.64
2024-04-22T11:19:07.386Z,1017.62
2024-04-22T11:20:06.446Z,1017.59
2024-04-22T11:21:06.462Z,1017.58
2024-04-22T11:22:06.428Z,1017.58
2024-04-22T11:23:06.424Z,1017.58
2024-04-22T11:24:06.419Z,1017.58
2024-04-22T11:25:06.638Z,1017.54
2024-04-22T11:26:06.402Z,1017.55
2024-04-22T11:27:06.433Z,1017.58
2024-04-22T11:28:06.379Z,1017.54
2024-04-22T11:29:06.339Z,1017.61
2024-04-22T11:30:06.357Z,1017.61
2024-04-22T11:31:06.320Z,1017.62
2024-04-22T11:32:06.448Z,1017.62
2024-04-22T11:33:06.440Z,1017.65
2024-04-22T11:34:06.311Z,1017.61
2024-04-22T11:35:06.289Z,1017.62
2024-04-22T11:36:06.339Z,1017.61
2024-04-22T11:37:06.278Z,1017.60
2024-04-22T11:38:06.269Z,1017.59
2024-04-22T11:39:06.335Z,1017.55
2024-04-22T11:40:06.235Z,1017.58
2024-04-22T11:41:06.224Z,1017.58
2024-04-22T11:42:06.239Z,1017.59
2024-04-22T11:43:06.284Z,1017.56
2024-04-22T11:44:06.178Z,1017.55
2024-04-22T11:45:07.071Z,1017.56
2024-04-22T11:46:06.192Z,1017.51
2024-04-22T11:47:06.317Z,1017.52
2024-04-22T11:48:06.267Z,1017.51
2024-04-22T11:49:06.135Z,1017.54
2024-04-22T11:50:06.112Z,1017.52
2024-04-22T11:51:06.140Z,1017.50
2024-04-22T11:52:06.090Z,1017.49
2024-04-22T11:53:14.449Z,1017.51
2024-04-22T11:54:06.137Z,1017.48
2024-04-22T11:55:06.068Z,1017.46
2024-04-22T11:56:08.824Z,1017.47
2024-04-22T11:57:06.042Z,1017.42
2024-04-22T11:58:06.030Z,1017.38
2024-04-22T11:59:06.040Z,1017.37
2024-04-22T12:00:06.089Z,1017.38
2024-04-22T12:01:06.035Z,1017.37
2024-04-22T12:02:05.980Z,1017.38
2024-04-22T12:03:05.970Z,1017.34
2024-04-22T12:04:05.984Z,1017.35
2024-04-22T12:05:06.034Z,1017.33